Time;durP1;ratioP1;P1;durP2;ratioP2;P2;SDS_P1;SDS_P2;PMS_P1;PMS_P2;Temp;Humidity;BMP_temperature;BMP_pressure;BME280_temperature;BME280_humidity;BME280_pressure;Samples;Min_cycle;Max_cycle;Signal;HPM_P1;HPM_P2
2023/12/27 00:00:05;;;;;;;6.10;3.70;;;7.50;47.60;;;;;;5033242;28;20688;-82
2023/12/27 00:02:32;;;;;;;5.97;3.38;;;7.50;47.80;;;;;;5033250;28;20310;-82
2023/12/27 00:05:00;;;;;;;7.05;3.92;;;7.40;47.90;;;;;;5033387;28;20642;-83
2023/12/27 00:07:27;;;;;;;5.68;3.28;;;7.40;48.20;;;;;;5033127;28;20246;-83
2023/12/27 00:09:54;;;;;;;6.38;3.35;;;7.30;48.20;;;;;;5033099;28;20227;-82
2023/12/27 00:12:21;;;;;;;4.78;3.10;;;7.30;48.40;;;;;;5033053;28;20282;-83
2023/12/27 00:14:48;;;;;;;5.90;4.00;;;7.20;48.60;;;;;;5033599;28;20223;-83
2023/12/27 00:17:15;;;;;;;8.15;4.88;;;7.10;48.80;;;;;;5033529;28;20282;-83
2023/12/27 00:19:42;;;;;;;7.15;2.85;;;7.10;48.90;;;;;;5032839;28;20282;-83
2023/12/27 00:22:11;;;;;;;5.95;3.40;;;7.20;48.80;;;;;;5033149;28;20211;-82
2023/12/27 00:24:38;;;;;;;5.40;3.25;;;7.10;48.60;;;;;;5033334;28;20541;-83
2023/12/27 00:27:05;;;;;;;5.00;2.78;;;7.00;48.60;;;;;;5033255;28;20231;-83
2023/12/27 00:29:32;;;;;;;9.00;3.60;;;7.00;48.80;;;;;;5032949;28;20227;-83
2023/12/27 00:31:59;;;;;;;6.68;3.63;;;6.90;48.90;;;;;;5032840;28;20230;-83
2023/12/27 00:34:27;;;;;;;5.50;3.35;;;6.90;49.20;;;;;;5033374;28;20622;-83
2023/12/27 00:36:54;;;;;;;7.15;3.92;;;6.80;49.40;;;;;;5033091;28;20227;-83
2023/12/27 00:39:24;;;;;;;4.72;3.00;;;6.80;49.40;;;;;;5033156;28;20191;-83
2023/12/27 00:41:51;;;;;;;7.75;4.05;;;6.80;49.50;;;;;;5033014;28;20220;-83
2023/12/27 00:44:18;;;;;;;4.57;2.60;;;6.80;49.40;;;;;;5033217;28;20278;-83
2023/12/27 00:46:45;;;;;;;4.18;2.75;;;6.70;49.50;;;;;;5032752;28;20255;-83
2023/12/27 00:49:13;;;;;;;5.78;3.08;;;6.70;49.50;;;;;;5035394;28;20684;-84
2023/12/27 00:51:40;;;;;;;6.18;4.18;;;6.70;49.60;;;;;;5036757;28;20622;-83
2023/12/27 00:54:07;;;;;;;5.45;3.10;;;6.70;49.70;;;;;;5036428;28;20234;-82
2023/12/27 00:56:38;;;;;;;5.43;3.35;;;6.70;49.70;;;;;;5036720;28;20286;-83
2023/12/27 00:59:05;;;;;;;6.60;3.00;;;6.70;49.80;;;;;;5036396;28;20215;-84
2023/12/27 01:01:32;;;;;;;7.82;3.33;;;6.80;49.90;;;;;;5036578;28;20641;-83
2023/12/27 01:03:59;;;;;;;5.65;3.30;;;6.80;49.70;;;;;;5036612;28;20191;-83
2023/12/27 01:06:26;;;;;;;5.88;3.15;;;6.80;49.70;;;;;;5036628;28;20279;-83
2023/12/27 01:08:53;;;;;;;7.25;3.28;;;6.80;49.80;;;;;;5036534;28;20278;-84
2023/12/27 01:11:20;;;;;;;6.07;3.58;;;6.80;49.80;;;;;;5036177;28;20268;-83
2023/12/27 01:13:48;;;;;;;5.53;3.22;;;6.80;49.80;;;;;;5036120;28;20283;-83
2023/12/27 01:16:15;;;;;;;5.35;2.75;;;6.90;49.80;;;;;;5036361;28;20223;-83
2023/12/27 01:18:42;;;;;;;4.70;3.20;;;6.80;49.90;;;;;;5035981;28;20231;-83
2023/12/27 01:21:09;;;;;;;7.20;3.28;;;6.80;50.00;;;;;;5036160;28;20246;-83
2023/12/27 01:23:36;;;;;;;7.00;3.03;;;6.80;50.20;;;;;;5035993;28;20282;-83
2023/12/27 01:26:03;;;;;;;9.07;2.63;;;6.80;50.20;;;;;;5036117;28;20289;-83
2023/12/27 01:28:30;;;;;;;6.95;3.20;;;6.80;50.30;;;;;;5036094;28;20196;-83
2023/12/27 01:30:59;;;;;;;5.40;3.10;;;6.80;50.50;;;;;;5036184;28;20279;-83
2023/12/27 01:33:26;;;;;;;5.88;3.25;;;6.80;50.80;;;;;;5036219;28;20608;-83
2023/12/27 01:35:53;;;;;;;5.43;3.10;;;6.80;50.90;;;;;;5035674;28;20283;-83
2023/12/27 01:38:20;;;;;;;5.05;3.05;;;6.80;50.80;;;;;;5035587;28;20234;-83
2023/12/27 01:40:50;;;;;;;8.40;4.45;;;6.80;50.70;;;;;;5035852;28;20217;-83
2023/12/27 01:43:17;;;;;;;5.60;3.42;;;6.80;50.90;;;;;;5035602;28;20718;-83
2023/12/27 01:45:46;;;;;;;5.38;2.83;;;6.80;50.90;;;;;;5035861;28;20282;-83
2023/12/27 01:48:16;;;;;;;4.80;3.20;;;6.80;51.00;;;;;;5035917;28;20737;-83
2023/12/27 01:50:44;;;;;;;6.25;3.88;;;6.80;52.00;;;;;;5036015;28;20539;-83
2023/12/27 01:53:12;;;;;;;6.28;3.25;;;6.80;51.60;;;;;;5035697;28;20290;-82
2023/12/27 01:55:39;;;;;;;4.25;2.90;;;6.80;51.70;;;;;;5035741;28;20608;-83
2023/12/27 01:58:08;;;;;;;6.65;3.03;;;6.80;51.70;;;;;;5035698;28;20195;-83
2023/12/27 02:00:37;;;;;;;6.65;3.20;;;6.70;51.60;;;;;;5035061;28;20249;-83
2023/12/27 02:03:04;;;;;;;5.13;2.83;;;6.70;51.60;;;;;;5035353;28;20225;-83
2023/12/27 02:05:33;;;;;;;5.07;2.92;;;6.70;51.70;;;;;;5035048;28;20278;-83
2023/12/27 02:08:00;;;;;;;5.75;3.10;;;6.70;51.40;;;;;;5035449;28;20187;-84
2023/12/27 02:10:28;;;;;;;4.55;3.03;;;6.70;51.40;;;;;;5035367;28;20587;-83
2023/12/27 02:12:55;;;;;;;4.93;2.33;;;6.80;51.30;;;;;;5035293;28;20204;-84
2023/12/27 02:15:22;;;;;;;4.40;2.35;;;6.80;51.20;;;;;;5035273;28;20233;-83
2023/12/27 02:17:50;;;;;;;4.53;2.95;;;6.80;51.20;;;;;;5035404;28;20227;-83
2023/12/27 02:20:18;;;;;;;4.68;2.97;;;6.80;51.10;;;;;;5034838;28;20682;-83
2023/12/27 02:22:49;;;;;;;5.90;2.67;;;6.70;51.20;;;;;;5034750;28;20683;-83
2023/12/27 02:25:19;;;;;;;5.35;3.20;;;6.70;51.30;;;;;;5034839;28;20175;-83
2023/12/27 02:27:46;;;;;;;5.18;2.80;;;6.70;51.30;;;;;;5035099;28;20274;-83
2023/12/27 02:30:18;;;;;;;5.50;2.92;;;6.60;51.40;;;;;;5034974;28;20253;-83
2023/12/27 02:32:45;;;;;;;5.95;3.10;;;6.60;51.70;;;;;;5035071;28;20287;-83
2023/12/27 02:35:12;;;;;;;4.00;2.25;;;6.50;51.70;;;;;;5035008;28;20286;-83
2023/12/27 02:37:39;;;;;;;5.65;3.00;;;6.50;52.20;;;;;;5034841;28;20195;-83
2023/12/27 02:40:07;;;;;;;4.20;2.40;;;6.50;52.20;;;;;;5034796;28;20227;-84
2023/12/27 02:42:36;;;;;;;4.72;2.95;;;6.50;52.30;;;;;;5033734;28;20636;-83
2023/12/27 02:45:09;;;;;;;5.07;3.00;;;6.50;52.20;;;;;;5034769;28;20230;-83
2023/12/27 02:47:36;;;;;;;4.47;2.60;;;6.50;52.10;;;;;;5034315;28;20586;-83
2023/12/27 02:50:03;;;;;;;3.90;2.75;;;6.60;51.80;;;;;;5034626;28;20199;-83
2023/12/27 02:52:30;;;;;;;3.38;2.47;;;6.60;51.70;;;;;;5034665;28;20191;-84
2023/12/27 02:54:57;;;;;;;5.60;3.17;;;6.50;51.70;;;;;;5034471;28;20198;-83
2023/12/27 02:57:24;;;;;;;4.45;2.83;;;6.50;51.50;;;;;;5034099;28;20199;-84
2023/12/27 02:59:53;;;;;;;4.60;2.42;;;6.50;51.60;;;;;;5034485;28;20278;-84
2023/12/27 03:02:20;;;;;;;3.85;2.60;;;6.50;51.70;;;;;;5033977;28;20759;-83
2023/12/27 03:04:47;;;;;;;3.55;2.42;;;6.40;51.80;;;;;;5034375;28;20223;-83
2023/12/27 03:07:14;;;;;;;4.07;2.55;;;6.50;52.20;;;;;;5034242;28;20228;-84
2023/12/27 03:09:41;;;;;;;6.32;3.65;;;6.50;52.40;;;;;;5033894;28;20231;-83
2023/12/27 03:12:08;;;;;;;5.75;3.38;;;6.50;52.50;;;;;;5033423;28;20199;-84
2023/12/27 03:14:35;;;;;;;5.35;3.10;;;6.50;52.80;;;;;;5034132;28;20195;-83
2023/12/27 03:17:04;;;;;;;6.15;3.30;;;6.50;52.90;;;;;;5034099;28;20231;-84
2023/12/27 03:19:30;;;;;;;6.20;3.53;;;6.50;52.50;;;;;;5034138;28;20279;-83
2023/12/27 03:21:57;;;;;;;5.20;3.22;;;6.40;52.60;;;;;;5033916;28;20682;-84
2023/12/27 03:24:24;;;;;;;9.60;3.78;;;6.40;53.20;;;;;;5034129;28;20630;-84
2023/12/27 03:26:51;;;;;;;4.75;2.60;;;6.40;53.40;;;;;;5034017;28;20198;-84
2023/12/27 03:29:18;;;;;;;3.72;2.47;;;6.30;53.60;;;;;;5033526;28;20230;-84
2023/12/27 03:31:45;;;;;;;4.25;2.63;;;6.30;53.70;;;;;;5033988;28;20301;-84
2023/12/27 03:34:14;;;;;;;5.25;3.10;;;6.30;53.50;;;;;;5033936;28;20183;-84
2023/12/27 03:36:41;;;;;;;8.20;2.90;;;6.30;53.40;;;;;;5033770;28;20284;-84
2023/12/27 03:39:08;;;;;;;5.28;2.67;;;6.30;53.70;;;;;;5033896;28;20617;-83
2023/12/27 03:41:35;;;;;;;4.05;2.90;;;6.30;54.00;;;;;;5033652;28;20533;-84
2023/12/27 03:44:02;;;;;;;3.80;2.30;;;6.30;54.00;;;;;;5033801;28;20557;-84
2023/12/27 03:46:29;;;;;;;5.10;2.75;;;6.20;53.90;;;;;;5033589;28;20262;-83
2023/12/27 03:48:56;;;;;;;6.72;2.95;;;6.10;54.20;;;;;;5033731;28;20215;-83
2023/12/27 03:51:24;;;;;;;7.25;3.20;;;6.00;54.20;;;;;;5033617;28;20191;-83
2023/12/27 03:53:50;;;;;;;4.03;2.83;;;6.00;54.30;;;;;;5033257;28;20230;-83
2023/12/27 03:56:18;;;;;;;4.40;2.30;;;6.00;54.40;;;;;;5033545;28;20235;-83
2023/12/27 03:58:45;;;;;;;4.25;2.40;;;5.90;54.30;;;;;;5033548;28;20833;-83
2023/12/27 04:01:12;;;;;;;7.57;2.67;;;5.90;54.40;;;;;;5033604;28;20230;-84
2023/12/27 04:03:40;;;;;;;4.30;2.90;;;5.90;54.20;;;;;;5033341;28;20301;-84
2023/12/27 04:06:07;;;;;;;3.78;2.00;;;5.90;54.20;;;;;;5033417;28;20188;-83
2023/12/27 04:08:36;;;;;;;4.35;2.80;;;5.90;53.80;;;;;;5033458;28;20226;-84
2023/12/27 04:11:03;;;;;;;3.50;2.03;;;5.80;53.50;;;;;;5033591;28;20249;-84
2023/12/27 04:13:30;;;;;;;3.85;2.08;;;5.80;53.40;;;;;;5033579;28;20597;-84
2023/12/27 04:15:57;;;;;;;3.65;2.00;;;5.80;53.60;;;;;;5033499;28;20223;-84
2023/12/27 04:18:24;;;;;;;4.55;2.50;;;5.80;53.50;;;;;;5032968;28;20235;-83
2023/12/27 04:20:51;;;;;;;3.95;2.67;;;5.70;53.40;;;;;;5033345;28;20662;-84
2023/12/27 04:23:17;;;;;;;6.03;3.03;;;5.70;53.30;;;;;;5035909;28;20641;-83
2023/12/27 04:25:46;;;;;;;3.90;2.80;;;5.60;53.50;;;;;;5037535;28;20187;-83
2023/12/27 04:28:13;;;;;;;5.95;2.38;;;5.50;53.50;;;;;;5037307;28;20223;-83
2023/12/27 04:30:45;;;;;;;6.60;2.45;;;5.50;53.60;;;;;;5037297;28;20278;-83
2023/12/27 04:33:12;;;;;;;5.32;3.20;;;5.50;53.70;;;;;;5037412;28;20223;-83
2023/12/27 04:35:39;;;;;;;5.60;2.40;;;5.50;53.70;;;;;;5037103;28;20605;-82
2023/12/27 04:38:06;;;;;;;5.15;2.50;;;5.40;53.90;;;;;;5037004;28;20222;-83
2023/12/27 04:40:33;;;;;;;4.60;2.45;;;5.40;53.80;;;;;;5037108;28;20282;-82
2023/12/27 04:43:02;;;;;;;4.38;2.05;;;5.30;53.90;;;;;;5036940;28;20640;-83
2023/12/27 04:45:29;;;;;;;4.35;1.88;;;5.30;53.60;;;;;;5036932;28;20254;-82
2023/12/27 04:47:56;;;;;;;3.28;1.75;;;5.30;53.60;;;;;;5036527;28;20243;-83
2023/12/27 04:50:23;;;;;;;3.90;2.50;;;5.30;53.70;;;;;;5036594;28;20299;-82
2023/12/27 04:52:50;;;;;;;3.88;2.08;;;5.30;53.80;;;;;;5036845;28;20195;-82
2023/12/27 04:55:17;;;;;;;3.78;2.00;;;5.20;54.10;;;;;;5036401;28;20246;-82
2023/12/27 04:57:44;;;;;;;3.92;2.00;;;5.20;54.40;;;;;;5036559;28;20195;-82
2023/12/27 05:00:13;;;;;;;4.25;2.60;;;5.20;54.50;;;;;;5036410;28;20765;-82
2023/12/27 05:02:40;;;;;;;6.10;2.63;;;5.20;54.60;;;;;;5036394;28;20298;-82
2023/12/27 05:05:07;;;;;;;6.60;3.13;;;5.20;54.80;;;;;;5036733;28;20628;-83
2023/12/27 05:07:34;;;;;;;5.03;2.63;;;5.20;54.70;;;;;;5036480;28;20200;-82
2023/12/27 05:10:01;;;;;;;4.68;2.42;;;5.20;54.70;;;;;;5036598;28;20246;-81
2023/12/27 05:12:28;;;;;;;6.07;2.55;;;5.20;55.00;;;;;;5036679;28;20283;-82
2023/12/27 05:14:55;;;;;;;4.85;3.15;;;5.20;55.30;;;;;;5036198;28;20278;-82
2023/12/27 05:17:24;;;;;;;3.20;1.90;;;5.20;55.60;;;;;;5036179;28;20198;-82
2023/12/27 05:19:51;;;;;;;4.78;2.25;;;5.20;55.60;;;;;;5036482;28;20219;-82
2023/12/27 05:22:19;;;;;;;3.35;2.00;;;5.10;55.50;;;;;;5036365;28;20341;-82
2023/12/27 05:24:46;;;;;;;3.45;1.58;;;5.10;55.50;;;;;;5036422;28;20208;-82
2023/12/27 05:27:13;;;;;;;3.28;1.67;;;5.00;55.30;;;;;;5036292;28;20227;-82
2023/12/27 05:29:40;;;;;;;6.35;2.15;;;5.00;55.40;;;;;;5036282;28;20234;-82
2023/12/27 05:32:10;;;;;;;5.57;2.33;;;4.90;55.30;;;;;;5036223;28;20279;-85
2023/12/27 05:34:39;;;;;;;5.10;2.50;;;4.90;55.50;;;;;;5035565;28;20187;-83
2023/12/27 05:37:06;;;;;;;5.60;2.60;;;4.80;55.70;;;;;;5036080;28;20291;-82
2023/12/27 05:39:32;;;;;;;4.45;2.50;;;4.70;55.80;;;;;;5035832;28;20192;-83
2023/12/27 05:41:59;;;;;;;2.95;2.00;;;4.70;56.00;;;;;;5035997;28;20227;-83
2023/12/27 05:44:26;;;;;;;6.88;3.75;;;4.70;55.90;;;;;;5035658;28;20246;-83
2023/12/27 05:46:53;;;;;;;9.35;4.85;;;4.60;56.20;;;;;;5035441;28;20273;-83
2023/12/27 05:49:20;;;;;;;6.90;3.78;;;4.50;56.60;;;;;;5035941;28;20230;-83
2023/12/27 05:51:49;;;;;;;6.20;2.83;;;4.50;56.80;;;;;;5035541;28;20663;-83
2023/12/27 05:54:17;;;;;;;6.25;3.72;;;4.40;57.00;;;;;;5035849;28;20261;-82
2023/12/27 05:56:45;;;;;;;7.72;4.10;;;4.40;57.00;;;;;;5035460;28;20650;-82
2023/12/27 05:59:13;;;;;;;5.10;3.35;;;4.30;57.10;;;;;;5035362;28;20686;-82
2023/12/27 06:01:47;;;;;;;9.18;4.40;;;4.30;57.30;;;;;;5035346;28;20195;-82
2023/12/27 06:04:15;;;;;;;6.43;3.50;;;4.20;57.20;;;;;;5035924;28;20207;-83
2023/12/27 06:06:49;;;;;;;5.60;2.45;;;4.10;57.60;;;;;;5035455;28;20292;-82
2023/12/27 06:09:16;;;;;;;4.03;2.80;;;4.10;57.80;;;;;;5035512;28;20661;-82
2023/12/27 06:11:43;;;;;;;6.32;3.33;;;4.10;58.20;;;;;;5035508;28;20233;-82
2023/12/27 06:14:10;;;;;;;6.72;3.08;;;4.10;57.80;;;;;;5035590;28;20249;-82
2023/12/27 06:16:39;;;;;;;3.90;2.67;;;4.00;57.60;;;;;;5035389;28;20594;-81
2023/12/27 06:19:07;;;;;;;4.35;2.50;;;4.00;57.90;;;;;;5035035;28;20680;-81
2023/12/27 06:21:34;;;;;;;5.82;3.40;;;3.90;57.90;;;;;;5035330;28;20230;-81
2023/12/27 06:24:03;;;;;;;4.80;2.65;;;3.90;58.00;;;;;;5035294;28;20737;-81
2023/12/27 06:26:31;;;;;;;5.00;2.80;;;3.90;57.70;;;;;;5034865;28;20704;-81
2023/12/27 06:28:58;;;;;;;3.70;2.40;;;3.90;57.40;;;;;;5035284;28;20545;-81
2023/12/27 06:31:25;;;;;;;5.05;2.05;;;3.90;57.40;;;;;;5034857;28;20686;-81
2023/12/27 06:33:52;;;;;;;5.00;2.15;;;3.80;57.50;;;;;;5035118;28;20231;-81
2023/12/27 06:36:19;;;;;;;3.95;2.20;;;3.80;57.90;;;;;;5035060;28;20238;-81
2023/12/27 06:38:46;;;;;;;5.50;2.38;;;3.80;57.80;;;;;;5035003;28;20230;-81
2023/12/27 06:41:16;;;;;;;4.35;2.42;;;3.70;57.90;;;;;;5035174;28;20219;-81
2023/12/27 06:43:43;;;;;;;5.70;2.85;;;3.70;58.40;;;;;;5034692;28;20218;-81
2023/12/27 06:46:11;;;;;;;8.15;3.22;;;3.70;58.40;;;;;;5034726;28;20544;-81
2023/12/27 06:48:38;;;;;;;10.73;2.28;;;3.70;58.30;;;;;;5034559;28;20266;-81
2023/12/27 06:51:06;;;;;;;5.50;2.95;;;3.70;58.20;;;;;;5034774;28;20258;-81
2023/12/27 06:53:33;;;;;;;8.77;3.47;;;3.60;58.20;;;;;;5034660;28;20192;-81
2023/12/27 06:56:01;;;;;;;7.50;4.75;;;3.50;58.50;;;;;;5034297;28;20658;-81
2023/12/27 06:58:30;;;;;;;7.75;3.85;;;3.50;58.80;;;;;;5034335;28;20188;-81
2023/12/27 07:00:57;;;;;;;8.07;3.45;;;3.50;58.60;;;;;;5034445;28;20278;-82
2023/12/27 07:03:25;;;;;;;5.85;2.97;;;3.60;58.70;;;;;;5034293;28;20255;-82
2023/12/27 07:05:52;;;;;;;5.85;3.30;;;3.60;58.10;;;;;;5034466;28;20191;-82
2023/12/27 07:08:19;;;;;;;6.35;3.72;;;3.60;58.20;;;;;;5034352;28;20223;-82
2023/12/27 07:10:46;;;;;;;10.90;6.25;;;3.50;58.20;;;;;;5034229;28;20282;-82
2023/12/27 07:13:13;;;;;;;6.03;3.88;;;3.50;58.60;;;;;;5033835;28;20231;-82
2023/12/27 07:15:42;;;;;;;5.47;3.67;;;3.50;58.50;;;;;;5033785;28;20234;-82
2023/12/27 07:18:09;;;;;;;7.20;4.38;;;3.50;58.10;;;;;;5033970;28;20274;-82
2023/12/27 07:20:36;;;;;;;10.20;4.78;;;3.40;58.30;;;;;;5033710;28;20199;-82
2023/12/27 07:23:03;;;;;;;6.47;4.45;;;3.30;58.50;;;;;;5033787;28;20316;-81
2023/12/27 07:25:30;;;;;;;8.80;4.38;;;3.40;59.10;;;;;;5033948;28;20245;-81
2023/12/27 07:27:57;;;;;;;8.10;4.75;;;3.50;59.40;;;;;;5033558;28;20187;-82
2023/12/27 07:30:24;;;;;;;13.25;7.53;;;3.80;59.70;;;;;;5033852;28;20187;-82
2023/12/27 07:32:53;;;;;;;10.93;6.30;;;4.10;58.80;;;;;;5033877;28;20610;-82
2023/12/27 07:35:20;;;;;;;6.65;4.15;;;4.60;57.20;;;;;;5033921;28;20191;-82
2023/12/27 07:37:47;;;;;;;5.40;3.95;;;5.10;55.60;;;;;;5033777;28;20241;-82
2023/12/27 07:40:15;;;;;;;4.47;2.90;;;5.60;55.00;;;;;;5033339;28;20667;-82
2023/12/27 07:42:43;;;;;;;6.60;4.60;;;6.00;54.10;;;;;;5033228;28;20197;-82
2023/12/27 07:45:10;;;;;;;7.70;5.13;;;6.30;53.40;;;;;;5033345;28;20717;-83
2023/12/27 07:47:37;;;;;;;6.68;3.88;;;6.40;52.80;;;;;;5033410;28;20266;-83
2023/12/27 07:50:07;;;;;;;6.90;4.47;;;6.30;52.20;;;;;;5033480;28;20274;-83
2023/12/27 07:52:34;;;;;;;9.05;4.90;;;6.40;52.20;;;;;;5033563;28;20273;-83
2023/12/27 07:55:01;;;;;;;9.10;6.25;;;6.40;51.80;;;;;;5033068;28;20230;-83
2023/12/27 07:57:28;;;;;;;7.15;4.72;;;6.40;51.50;;;;;;5032662;28;20233;-83
2023/12/27 07:59:57;;;;;;;6.32;4.30;;;6.30;51.50;;;;;;5033127;28;20662;-83
2023/12/27 08:02:24;;;;;;;7.40;4.53;;;6.30;51.60;;;;;;5033083;28;20202;-83
2023/12/27 08:04:51;;;;;;;7.95;5.35;;;6.30;51.50;;;;;;5032973;28;20755;-84
2023/12/27 08:07:20;;;;;;;7.13;4.40;;;6.10;51.20;;;;;;5032968;28;20733;-84
2023/12/27 08:09:47;;;;;;;14.55;5.90;;;6.10;51.70;;;;;;5033313;28;20199;-83
2023/12/27 08:12:14;;;;;;;6.43;4.43;;;6.20;51.90;;;;;;5033393;28;20223;-83
2023/12/27 08:14:41;;;;;;;5.28;3.40;;;6.10;51.90;;;;;;5032997;28;20231;-83
2023/12/27 08:17:08;;;;;;;4.25;2.97;;;6.10;52.10;;;;;;5033274;28;20227;-83
2023/12/27 08:19:36;;;;;;;5.85;3.67;;;6.10;52.50;;;;;;5033278;28;20187;-83
2023/12/27 08:22:04;;;;;;;5.45;3.60;;;6.10;52.70;;;;;;5033489;28;20706;-83
2023/12/27 08:24:32;;;;;;;5.40;3.80;;;6.10;52.90;;;;;;5033113;28;20297;-83
2023/12/27 08:26:59;;;;;;;5.28;3.10;;;6.00;52.90;;;;;;5033162;28;20312;-83
2023/12/27 08:29:26;;;;;;;9.43;3.90;;;5.90;53.10;;;;;;5033122;28;20552;-83
2023/12/27 08:31:53;;;;;;;5.28;3.20;;;5.90;53.10;;;;;;5033262;28;20191;-83
2023/12/27 08:34:21;;;;;;;99.45;45.03;;;5.90;52.90;;;;;;5033177;28;20278;-83
2023/12/27 08:36:48;;;;;;;34.60;16.25;;;5.90;53.20;;;;;;5033125;28;20274;-83
2023/12/27 08:39:16;;;;;;;8.13;4.45;;;6.00;53.40;;;;;;5032799;28;20200;-83
2023/12/27 08:41:44;;;;;;;5.90;3.13;;;6.20;53.30;;;;;;5032900;28;20283;-81
2023/12/27 08:44:12;;;;;;;4.72;3.55;;;6.20;53.30;;;;;;5032778;28;20302;-83
2023/12/27 08:46:40;;;;;;;4.60;2.47;;;6.30;53.40;;;;;;5032126;28;20230;-83
2023/12/27 08:49:09;;;;;;;5.35;2.50;;;6.40;53.30;;;;;;5032969;28;20203;-83
2023/12/27 08:51:36;;;;;;;5.85;2.95;;;6.60;53.30;;;;;;5032624;28;20229;-83
2023/12/27 08:54:05;;;;;;;11.15;4.20;;;7.00;52.70;;;;;;5032716;28;20195;-83
2023/12/27 08:56:32;;;;;;;6.97;2.95;;;7.40;51.90;;;;;;5032877;28;20231;-84
2023/12/27 08:59:00;;;;;;;5.65;3.08;;;7.80;51.00;;;;;;5032373;28;20196;-84
2023/12/27 09:01:28;;;;;;;6.15;3.83;;;8.30;50.40;;;;;;5032463;28;20191;-84
2023/12/27 09:03:55;;;;;;;6.40;3.45;;;8.70;50.70;;;;;;5032565;28;20215;-85
2023/12/27 09:06:22;;;;;;;4.93;2.90;;;9.00;50.40;;;;;;5032584;28;20234;-83
2023/12/27 09:08:49;;;;;;;12.50;5.68;;;9.30;49.50;;;;;;5032842;28;20223;-84
2023/12/27 09:11:18;;;;;;;3.88;3.03;;;9.60;48.50;;;;;;5036355;28;20330;-84
2023/12/27 09:13:45;;;;;;;6.60;2.90;;;9.80;47.60;;;;;;5035931;28;20199;-84
2023/12/27 09:16:13;;;;;;;4.20;2.78;;;10.10;46.30;;;;;;5036174;28;20195;-84
2023/12/27 09:18:40;;;;;;;5.40;2.65;;;10.40;46.00;;;;;;5036029;28;20274;-84
2023/12/27 09:21:07;;;;;;;10.90;3.00;;;10.80;45.00;;;;;;5035928;28;20543;-85
2023/12/27 09:23:34;;;;;;;4.47;3.00;;;11.10;44.00;;;;;;5035877;28;20246;-85
2023/12/27 09:26:01;;;;;;;5.25;2.95;;;11.50;43.20;;;;;;5035784;28;20242;-85
2023/12/27 09:28:30;;;;;;;4.60;3.20;;;11.80;42.60;;;;;;5035731;28;20203;-85
2023/12/27 09:30:58;;;;;;;6.05;3.92;;;12.10;42.00;;;;;;5035450;28;20286;-85
2023/12/27 09:33:26;;;;;;;6.43;3.88;;;12.50;41.30;;;;;;5035655;28;20196;-85
2023/12/27 09:35:53;;;;;;;5.65;4.00;;;12.90;40.70;;;;;;5035845;28;20249;-87
2023/12/27 09:38:20;;;;;;;5.68;3.95;;;13.20;39.90;;;;;;5035785;28;20274;-87
2023/12/27 09:40:48;;;;;;;4.80;3.58;;;13.60;38.40;;;;;;5035707;28;20273;-87
2023/12/27 09:43:15;;;;;;;6.60;3.50;;;13.70;35.60;;;;;;5035098;28;20281;-87
2023/12/27 09:45:42;;;;;;;4.78;3.25;;;13.80;34.50;;;;;;5035468;28;20191;-86
2023/12/27 09:48:12;;;;;;;6.10;3.17;;;13.90;34.20;;;;;;5035770;28;20305;-86
2023/12/27 09:50:41;;;;;;;5.40;3.80;;;14.00;34.70;;;;;;5035687;28;20525;-86
2023/12/27 09:53:10;;;;;;;6.40;4.10;;;14.20;34.90;;;;;;5035522;28;20535;-85
2023/12/27 09:55:36;;;;;;;7.27;3.87;;;14.40;34.20;;;;;;5035569;28;20807;-84
2023/12/27 09:58:05;;;;;;;5.13;3.20;;;14.60;33.90;;;;;;5035107;28;20480;-84
2023/12/27 10:00:34;;;;;;;5.77;2.90;;;14.70;32.20;;;;;;5035161;28;20855;-83
2023/12/27 10:03:05;;;;;;;4.53;2.90;;;14.90;32.40;;;;;;5035262;28;20473;-83
2023/12/27 10:05:42;;;;;;;4.33;2.80;;;15.10;31.80;;;;;;5034746;28;20497;-84
2023/12/27 10:08:11;;;;;;;5.50;3.03;;;15.30;31.20;;;;;;5035345;28;20421;-84
2023/12/27 10:10:39;;;;;;;4.67;2.80;;;15.70;30.50;;;;;;5034720;28;20838;-84
2023/12/27 10:13:09;;;;;;;5.33;3.10;;;16.00;30.70;;;;;;5034716;28;20430;-83
2023/12/27 10:15:36;;;;;;;4.20;2.70;;;16.30;28.90;;;;;;5035054;28;20450;-84
2023/12/27 10:18:03;;;;;;;4.40;2.40;;;16.30;28.60;;;;;;5035066;28;20481;-83
2023/12/27 10:20:36;;;;;;;3.50;2.23;;;16.70;29.00;;;;;;5034574;28;20480;-84
2023/12/27 10:23:04;;;;;;;3.33;1.57;;;17.10;28.10;;;;;;5034465;28;20935;-84
2023/12/27 10:25:32;;;;;;;3.80;1.80;;;17.30;27.80;;;;;;5034538;28;20568;-84
2023/12/27 10:28:00;;;;;;;5.50;2.40;;;17.60;27.70;;;;;;5034886;28;20541;-84
2023/12/27 10:30:27;;;;;;;6.00;2.50;;;17.60;26.40;;;;;;5034387;28;20978;-84
2023/12/27 10:33:00;;;;;;;3.03;1.93;;;17.70;26.10;;;;;;5034877;28;20492;-84
2023/12/27 10:35:27;;;;;;;3.60;1.80;;;17.80;25.90;;;;;;5034879;28;20553;-83
2023/12/27 10:38:01;;;;;;;3.87;2.10;;;17.80;25.60;;;;;;5034379;28;20443;-84
2023/12/27 10:40:29;;;;;;;3.67;1.77;;;17.70;25.30;;;;;;5034115;28;20439;-84
2023/12/27 10:42:57;;;;;;;5.17;3.10;;;17.60;25.10;;;;;;5034369;28;20519;-84
2023/12/27 10:45:25;;;;;;;6.07;3.50;;;17.70;25.90;;;;;;5034134;28;20563;-85
2023/12/27 10:47:58;;;;;;;4.90;3.87;;;17.90;25.30;;;;;;5034495;28;20471;-84
2023/12/27 10:50:27;;;;;;;4.30;2.10;;;18.20;25.60;;;;;;5034366;28;20431;-84
2023/12/27 10:53:02;;;;;;;2.43;1.30;;;18.50;25.50;;;;;;5034294;28;20424;-85
2023/12/27 10:55:30;;;;;;;3.20;2.10;;;18.80;24.90;;;;;;5034169;28;20786;-84
2023/12/27 10:58:00;;;;;;;3.03;1.20;;;19.00;25.20;;;;;;5034373;28;20883;-86
2023/12/27 11:00:29;;;;;;;2.30;1.13;;;19.20;24.50;;;;;;5033762;28;20476;-84
2023/12/27 11:02:57;;;;;;;2.67;1.20;;;19.40;23.50;;;;;;5034371;28;20773;-85
2023/12/27 11:05:26;;;;;;;3.17;1.20;;;19.20;23.00;;;;;;5033857;28;20508;-85
2023/12/27 11:07:54;;;;;;;3.47;1.30;;;19.20;23.00;;;;;;5033874;28;20839;-85
2023/12/27 11:10:22;;;;;;;2.40;1.03;;;19.40;23.20;;;;;;5033847;28;20473;-85
2023/12/27 11:12:50;;;;;;;2.93;1.70;;;19.60;22.50;;;;;;5034186;28;20437;-84
2023/12/27 11:15:19;;;;;;;2.30;1.10;;;19.80;22.80;;;;;;5034148;28;20516;-85
2023/12/27 11:17:48;;;;;;;2.43;1.10;;;20.00;22.50;;;;;;5033450;28;20429;-85
2023/12/27 11:20:16;;;;;;;2.73;1.57;;;20.00;21.70;;;;;;5033436;28;20495;-85
2023/12/27 11:22:44;;;;;;;3.50;1.67;;;20.00;22.30;;;;;;5033304;28;20434;-85
2023/12/27 11:25:13;;;;;;;3.00;1.20;;;20.00;22.00;;;;;;5033517;28;20465;-85
2023/12/27 11:27:42;;;;;;;2.27;0.93;;;20.10;21.80;;;;;;5033573;28;20457;-85
2023/12/27 11:30:12;;;;;;;2.77;1.40;;;19.80;21.60;;;;;;5033627;28;20437;-84
2023/12/27 11:32:42;;;;;;;2.80;1.57;;;19.50;22.00;;;;;;5032986;28;20441;-84
2023/12/27 11:35:10;;;;;;;2.77;1.47;;;19.20;22.10;;;;;;5032961;28;20535;-84
2023/12/27 11:37:41;;;;;;;2.80;1.50;;;19.20;22.20;;;;;;5033344;28;20835;-85
2023/12/27 11:40:11;;;;;;;2.70;1.20;;;19.00;21.70;;;;;;5033684;28;20428;-85
2023/12/27 11:42:39;;;;;;;2.50;1.30;;;19.00;21.50;;;;;;5033766;28;20508;-85
2023/12/27 11:45:07;;;;;;;2.60;1.30;;;19.00;21.60;;;;;;5033071;28;21026;-85
2023/12/27 11:47:34;;;;;;;2.53;1.20;;;19.00;22.10;;;;;;5032968;28;20476;-85
2023/12/27 11:50:21;;;;;;;3.20;1.60;;;19.20;21.50;;;;;;5033413;28;20580;-85
2023/12/27 11:52:52;;;;;;;2.93;1.30;;;19.40;21.30;;;;;;5032919;28;20424;-85
2023/12/27 11:55:21;;;;;;;2.80;1.40;;;19.40;21.30;;;;;;5033369;28;20461;-85
2023/12/27 11:57:57;;;;;;;2.37;1.10;;;19.50;20.70;;;;;;5033040;28;20433;-85
2023/12/27 12:00:28;;;;;;;4.00;1.50;;;19.30;20.90;;;;;;5032945;28;20911;-85
2023/12/27 12:02:58;;;;;;;2.67;1.30;;;19.10;21.50;;;;;;5033459;28;20872;-85
2023/12/27 12:05:49;;;;;;;4.20;1.57;;;19.00;21.50;;;;;;5033503;28;20887;-84
2023/12/27 12:08:27;;;;;;;2.97;1.33;;;18.70;21.70;;;;;;5033467;28;20508;-84
2023/12/27 12:11:06;;;;;;;3.07;1.47;;;18.30;21.40;;;;;;5033409;28;20946;-84
2023/12/27 12:13:34;;;;;;;3.47;1.50;;;18.00;22.10;;;;;;5032870;28;20509;-84
2023/12/27 12:16:02;;;;;;;2.90;1.17;;;17.70;22.50;;;;;;5033298;28;20439;-84
2023/12/27 12:18:30;;;;;;;3.13;1.73;;;17.50;22.60;;;;;;5033063;28;20959;-84
2023/12/27 12:20:59;;;;;;;2.90;1.63;;;17.20;22.70;;;;;;5033380;28;20833;-84
2023/12/27 12:23:30;;;;;;;2.90;1.70;;;17.20;22.90;;;;;;5033147;28;20937;-84
2023/12/27 12:26:00;;;;;;;2.80;1.40;;;17.10;23.00;;;;;;5033032;28;20548;-84
2023/12/27 12:28:27;;;;;;;2.90;1.40;;;17.10;23.70;;;;;;5033213;28;20564;-84
2023/12/27 12:30:56;;;;;;;2.20;1.13;;;17.20;25.40;;;;;;5033201;28;20437;-84
2023/12/27 12:33:23;;;;;;;2.90;1.23;;;17.40;25.40;;;;;;5033195;28;20536;-84
2023/12/27 12:35:50;;;;;;;3.93;1.70;;;17.60;25.30;;;;;;5033206;28;20474;-84
2023/12/27 12:38:19;;;;;;;3.23;1.77;;;17.90;24.90;;;;;;5032818;28;20440;-83
2023/12/27 12:40:47;;;;;;;2.90;1.50;;;18.00;24.80;;;;;;5033193;28;20469;-84
2023/12/27 12:43:15;;;;;;;2.67;1.20;;;18.10;24.20;;;;;;5034158;28;20442;-84
2023/12/27 12:45:47;;;;;;;4.30;1.47;;;18.00;24.00;;;;;;5036867;28;20877;-84
2023/12/27 12:48:14;;;;;;;2.77;1.33;;;17.70;24.70;;;;;;5036908;28;20542;-84
2023/12/27 12:50:41;;;;;;;3.13;1.60;;;17.40;24.60;;;;;;5036592;28;21004;-84
2023/12/27 12:53:16;;;;;;;2.13;0.90;;;17.20;25.30;;;;;;5036799;28;20855;-83
2023/12/27 12:55:45;;;;;;;2.80;1.30;;;17.10;25.30;;;;;;5036459;28;20440;-83